Time;durP1;ratioP1;P1;durP2;ratioP2;P2;SDS_P1;SDS_P2;PMS_P1;PMS_P2;Temp;Humidity;BMP_temperature;BMP_pressure;BME280_temperature;BME280_humidity;BME280_pressure;Samples;Min_cycle;Max_cycle;Signal;HPM_P1;HPM_P2
2022/12/21 00:01:54;;;;;;;50.58;25.73;;;;;;;;;;4996678;28;20197;-69
2022/12/21 00:04:19;;;;;;;47.72;25.85;;;;;;;;;;5014270;28;20194;-69
2022/12/21 00:06:45;;;;;;;48.28;25.45;;;;;;;;;;5007693;28;20207;-69
2022/12/21 00:09:12;;;;;;;50.40;26.35;;;;;;;;;;5008859;28;20182;-69
2022/12/21 00:11:38;;;;;;;50.45;25.65;;;;;;;;;;5011541;28;20337;-69
2022/12/21 00:14:04;;;;;;;54.45;26.25;;;;;;;;;;4997701;28;20741;-69
2022/12/21 00:16:32;;;;;;;54.15;26.52;;;;;;;;;;5011257;28;20244;-69
2022/12/21 00:18:59;;;;;;;56.28;28.00;;;;;;;;;;5013830;28;20781;-69
2022/12/21 00:21:27;;;;;;;53.28;26.98;;;;;;;;;;4992762;28;20262;-69
2022/12/21 00:23:58;;;;;;;54.17;27.85;;;;;;;;;;4997153;28;20203;-69
2022/12/21 00:26:23;;;;;;;60.30;27.45;;;;;;;;;;5002001;28;20194;-69
2022/12/21 00:28:50;;;;;;;57.63;28.73;;;;;;;;;;5009454;28;20190;-69
2022/12/21 00:31:23;;;;;;;58.15;29.15;;;;;;;;;;5006009;28;20191;-69
2022/12/21 00:33:49;;;;;;;58.58;27.98;;;;;;;;;;5011156;28;20544;-69
2022/12/21 00:36:17;;;;;;;66.30;29.90;;;;;;;;;;5004783;28;20191;-69
2022/12/21 00:38:43;;;;;;;68.60;30.38;;;;;;;;;;5008556;28;20183;-69
2022/12/21 00:41:13;;;;;;;65.10;29.85;;;;;;;;;;4994811;28;20206;-69
2022/12/21 00:43:40;;;;;;;68.63;31.50;;;;;;;;;;5000657;28;20247;-69
2022/12/21 00:46:06;;;;;;;68.65;30.52;;;;;;;;;;5023129;28;20197;-69
2022/12/21 00:48:34;;;;;;;74.18;31.23;;;;;;;;;;5014498;28;20182;-69
2022/12/21 00:51:08;;;;;;;68.35;31.15;;;;;;;;;;5002594;28;20187;-69
2022/12/21 00:53:34;;;;;;;71.25;32.00;;;;;;;;;;5006092;28;20186;-69
2022/12/21 00:56:01;;;;;;;67.35;31.15;;;;;;;;;;5006076;28;20670;-69
2022/12/21 00:58:28;;;;;;;72.85;30.05;;;;;;;;;;5014310;28;20201;-69
2022/12/21 01:00:55;;;;;;;70.85;30.83;;;;;;;;;;5013225;28;20214;-69
2022/12/21 01:03:21;;;;;;;68.03;30.83;;;;;;;;;;4994634;28;20306;-69
2022/12/21 01:05:48;;;;;;;73.18;31.67;;;;;;;;;;5008182;28;20191;-69
2022/12/21 01:08:14;;;;;;;78.30;32.25;;;;;;;;;;5010932;28;20221;-69
2022/12/21 01:10:40;;;;;;;73.45;31.02;;;;;;;;;;5007729;28;20218;-69
2022/12/21 01:13:05;;;;;;;70.00;31.45;;;;;;;;;;5025064;28;20199;-69
2022/12/21 01:15:31;;;;;;;76.32;33.20;;;;;;;;;;5009548;28;20188;-69
2022/12/21 01:17:56;;;;;;;70.30;30.77;;;;;;;;;;5010297;28;20182;-68
2022/12/21 01:20:22;;;;;;;72.50;31.98;;;;;;;;;;5010550;28;20620;-68
2022/12/21 01:22:47;;;;;;;75.47;30.45;;;;;;;;;;5016933;28;20235;-69
2022/12/21 01:25:13;;;;;;;76.57;31.15;;;;;;;;;;5017192;28;20195;-69
2022/12/21 01:27:38;;;;;;;76.70;31.30;;;;;;;;;;5010487;28;20191;-69
2022/12/21 01:30:05;;;;;;;80.60;30.63;;;;;;;;;;5012261;28;20618;-69
2022/12/21 01:32:30;;;;;;;69.22;29.70;;;;;;;;;;5008726;28;20213;-69
2022/12/21 01:34:56;;;;;;;74.03;30.67;;;;;;;;;;5010621;28;20190;-68
2022/12/21 01:37:22;;;;;;;74.07;31.52;;;;;;;;;;5008291;28;20213;-68
2022/12/21 01:39:48;;;;;;;72.40;31.77;;;;;;;;;;5011399;28;20202;-70
2022/12/21 01:42:13;;;;;;;76.72;30.38;;;;;;;;;;5010038;28;20194;-69
2022/12/21 01:45:00;;;;;;;84.40;32.13;;;;;;;;;;5006575;28;20274;-68
2022/12/21 01:47:41;;;;;;;78.50;31.50;;;;;;;;;;4999016;28;20662;-68
2022/12/21 01:50:26;;;;;;;76.22;32.22;;;;;;;;;;4997492;28;20297;-68
2022/12/21 01:52:54;;;;;;;81.85;30.98;;;;;;;;;;5006696;28;20263;-67
2022/12/21 01:55:20;;;;;;;77.90;31.73;;;;;;;;;;5011182;28;20190;-68
2022/12/21 01:57:46;;;;;;;82.18;33.60;;;;;;;;;;5007753;28;20776;-68
2022/12/21 02:00:12;;;;;;;84.22;33.25;;;;;;;;;;5014682;28;20315;-68
2022/12/21 02:02:47;;;;;;;85.50;32.10;;;;;;;;;;4999135;28;20211;-68
2022/12/21 02:05:27;;;;;;;83.47;31.48;;;;;;;;;;5004759;28;20304;-67
2022/12/21 02:07:56;;;;;;;79.70;31.08;;;;;;;;;;5002968;28;20230;-67
2022/12/21 02:10:22;;;;;;;82.68;30.60;;;;;;;;;;5004474;28;20612;-68
2022/12/21 02:12:49;;;;;;;79.28;31.48;;;;;;;;;;5003172;28;20196;-68
2022/12/21 02:15:14;;;;;;;80.82;31.73;;;;;;;;;;5010127;28;20190;-68
2022/12/21 02:17:55;;;;;;;93.00;32.17;;;;;;;;;;5006492;28;20190;-68
2022/12/21 02:21:05;;;;;;;86.88;31.80;;;;;;;;;;4995907;28;20210;-67
2022/12/21 02:23:48;;;;;;;91.50;32.25;;;;;;;;;;5002645;28;20225;-67
2022/12/21 02:26:29;;;;;;;97.43;31.83;;;;;;;;;;5003076;28;20284;-68
2022/12/21 02:29:28;;;;;;;75.32;30.90;;;;;;;;;;5018102;28;20274;-68
2022/12/21 02:32:05;;;;;;;80.63;30.77;;;;;;;;;;4998113;28;20215;-68
2022/12/21 02:34:59;;;;;;;101.15;32.85;;;;;;;;;;5008857;28;20195;-68
2022/12/21 02:37:32;;;;;;;106.57;32.47;;;;;;;;;;4984767;28;20671;-67
2022/12/21 02:40:08;;;;;;;108.00;33.78;;;;;;;;;;5011293;28;20199;-68
2022/12/21 02:46:06;;;;;;;95.55;32.58;;;;;;;;;;5010312;28;20190;-68
2022/12/21 02:48:42;;;;;;;88.90;30.90;;;;;;;;;;5003157;28;20191;-68
2022/12/21 02:51:15;;;;;;;122.95;35.10;;;;;;;;;;5016066;28;21842;-68
2022/12/21 02:53:41;;;;;;;101.50;31.85;;;;;;;;;;5004896;28;20190;-68
2022/12/21 02:56:15;;;;;;;111.05;33.50;;;;;;;;;;5017998;28;20187;-68
2022/12/21 02:58:41;;;;;;;122.85;33.25;;;;;;;;;;5012560;28;20187;-68
2022/12/21 03:01:27;;;;;;;103.43;32.95;;;;;;;;;;5001616;28;20613;-67
2022/12/21 03:04:26;;;;;;;115.25;34.13;;;;;;;;;;5012930;28;20277;-67
2022/12/21 03:07:08;;;;;;;122.50;33.30;;;;;;;;;;5010791;28;20214;-68
2022/12/21 03:09:36;;;;;;;115.05;34.47;;;;;;;;;;5008363;28;20285;-68
2022/12/21 03:12:19;;;;;;;139.35;35.88;;;;;;;;;;5008869;28;20179;-68
2022/12/21 03:14:56;;;;;;;129.57;35.67;;;;;;;;;;5006771;28;20202;-68
2022/12/21 03:17:45;;;;;;;158.05;36.97;;;;;;;;;;5006853;28;20202;-68
2022/12/21 03:20:37;;;;;;;122.68;35.35;;;;;;;;;;5006324;28;20186;-68
2022/12/21 03:23:15;;;;;;;129.85;35.35;;;;;;;;;;5002319;28;20300;-68
2022/12/21 03:26:08;;;;;;;113.25;36.60;;;;;;;;;;5010365;28;20186;-68
2022/12/21 03:28:36;;;;;;;134.48;36.65;;;;;;;;;;5002397;28;20615;-68
2022/12/21 03:31:06;;;;;;;115.80;33.72;;;;;;;;;;5008046;28;20252;-68
2022/12/21 03:33:36;;;;;;;142.73;37.40;;;;;;;;;;5013627;28;20194;-68
2022/12/21 03:36:09;;;;;;;143.07;39.67;;;;;;;;;;5007696;28;20531;-68
2022/12/21 03:38:43;;;;;;;125.80;36.22;;;;;;;;;;4999534;28;20279;-68
2022/12/21 03:41:15;;;;;;;131.23;38.13;;;;;;;;;;5011533;28;20273;-69
2022/12/21 03:43:42;;;;;;;128.43;36.95;;;;;;;;;;5005569;28;20202;-68
2022/12/21 03:46:14;;;;;;;147.43;37.00;;;;;;;;;;5006716;28;20658;-68
2022/12/21 03:48:45;;;;;;;124.93;37.38;;;;;;;;;;5007736;28;20190;-68
2022/12/21 03:51:31;;;;;;;139.02;35.15;;;;;;;;;;5009849;28;20221;-68
2022/12/21 03:54:18;;;;;;;107.43;33.13;;;;;;;;;;5008990;28;20381;-68
2022/12/21 03:56:43;;;;;;;124.65;36.13;;;;;;;;;;5016661;28;20191;-68
2022/12/21 03:59:13;;;;;;;142.45;37.80;;;;;;;;;;5001523;28;20240;-69
2022/12/21 04:01:49;;;;;;;115.57;33.95;;;;;;;;;;5003993;28;20190;-68
2022/12/21 04:04:50;;;;;;;118.97;35.80;;;;;;;;;;5001376;28;20618;-69
2022/12/21 04:07:23;;;;;;;131.75;36.45;;;;;;;;;;5000505;28;20685;-69
2022/12/21 04:09:54;;;;;;;143.27;38.67;;;;;;;;;;5005362;28;20221;-68
2022/12/21 04:12:37;;;;;;;123.38;36.40;;;;;;;;;;5006066;28;20219;-69
2022/12/21 04:15:12;;;;;;;116.35;34.75;;;;;;;;;;5007963;28;20195;-69
2022/12/21 04:17:39;;;;;;;130.23;37.70;;;;;;;;;;5002373;28;20191;-69
2022/12/21 04:20:06;;;;;;;105.55;33.00;;;;;;;;;;5005873;28;20276;-69
2022/12/21 04:28:08;;;;;;;131.95;37.95;;;;;;;;;;4997963;28;20237;-68
2022/12/21 04:30:42;;;;;;;125.63;36.80;;;;;;;;;;5007788;28;20210;-68
2022/12/21 04:33:09;;;;;;;140.38;39.10;;;;;;;;;;4998372;28;20191;-68
2022/12/21 04:35:36;;;;;;;158.90;39.20;;;;;;;;;;5007480;28;20210;-68
2022/12/21 04:38:02;;;;;;;126.57;37.80;;;;;;;;;;5001753;28;20252;-68
2022/12/21 04:40:28;;;;;;;133.90;36.38;;;;;;;;;;5006378;28;20191;-69
2022/12/21 04:42:53;;;;;;;107.28;35.45;;;;;;;;;;5005215;28;20230;-69
2022/12/21 04:45:19;;;;;;;108.28;35.00;;;;;;;;;;5008145;28;20213;-68
2022/12/21 04:47:44;;;;;;;110.70;35.97;;;;;;;;;;5006370;28;20201;-68
2022/12/21 04:50:10;;;;;;;125.90;37.10;;;;;;;;;;5008442;28;20194;-68
2022/12/21 04:52:35;;;;;;;117.82;36.35;;;;;;;;;;5007476;28;20274;-68
2022/12/21 04:55:02;;;;;;;118.07;35.20;;;;;;;;;;5010502;28;20190;-68
2022/12/21 04:57:28;;;;;;;110.68;36.08;;;;;;;;;;5012681;28;20500;-68
2022/12/21 04:59:53;;;;;;;108.68;34.30;;;;;;;;;;5007140;28;20228;-68
2022/12/21 05:02:19;;;;;;;112.40;34.65;;;;;;;;;;5004276;28;20195;-68
2022/12/21 05:04:44;;;;;;;127.03;38.72;;;;;;;;;;4996288;28;20202;-68
2022/12/21 05:07:10;;;;;;;110.70;35.85;;;;;;;;;;5000720;28;20210;-68
2022/12/21 05:09:35;;;;;;;134.35;37.17;;;;;;;;;;5003586;28;20228;-68
2022/12/21 05:12:00;;;;;;;117.43;35.60;;;;;;;;;;5006183;28;20226;-68
2022/12/21 05:14:26;;;;;;;153.75;39.42;;;;;;;;;;5002463;28;20237;-69
2022/12/21 05:16:51;;;;;;;161.32;39.72;;;;;;;;;;4994065;28;20187;-69
2022/12/21 05:19:17;;;;;;;133.13;36.67;;;;;;;;;;5005686;28;20190;-69
2022/12/21 05:21:43;;;;;;;155.35;40.22;;;;;;;;;;5006489;28;20229;-69
2022/12/21 05:24:08;;;;;;;129.52;37.55;;;;;;;;;;5006346;28;20219;-68
2022/12/21 05:26:34;;;;;;;143.10;38.70;;;;;;;;;;5008332;28;20245;-69
2022/12/21 05:28:59;;;;;;;137.48;38.83;;;;;;;;;;4999492;28;20194;-69
2022/12/21 05:31:25;;;;;;;135.60;38.65;;;;;;;;;;5001427;28;20306;-69
2022/12/21 05:33:51;;;;;;;133.27;38.08;;;;;;;;;;5008242;28;20189;-69
2022/12/21 05:36:17;;;;;;;136.23;39.17;;;;;;;;;;5007253;28;20195;-68
2022/12/21 05:38:43;;;;;;;138.40;38.67;;;;;;;;;;4997640;28;20203;-69
2022/12/21 05:41:13;;;;;;;136.32;38.20;;;;;;;;;;5004901;28;20198;-69
2022/12/21 05:43:39;;;;;;;139.13;38.60;;;;;;;;;;5004559;28;20199;-69
2022/12/21 05:46:07;;;;;;;129.90;39.75;;;;;;;;;;5007058;28;20205;-69
2022/12/21 05:48:33;;;;;;;130.25;37.70;;;;;;;;;;5002928;28;20183;-69
2022/12/21 05:50:59;;;;;;;139.70;38.00;;;;;;;;;;5010009;28;20198;-69
2022/12/21 05:53:24;;;;;;;117.28;34.35;;;;;;;;;;5006819;28;20191;-69
2022/12/21 05:55:51;;;;;;;125.10;36.95;;;;;;;;;;5007961;28;20183;-69
2022/12/21 05:58:18;;;;;;;139.45;40.50;;;;;;;;;;5006562;28;20187;-68
2022/12/21 06:00:44;;;;;;;122.60;37.75;;;;;;;;;;5010539;28;20210;-68
2022/12/21 06:03:10;;;;;;;112.75;35.80;;;;;;;;;;5012863;28;20210;-69
2022/12/21 06:05:36;;;;;;;124.32;37.53;;;;;;;;;;5022769;28;20674;-68
2022/12/21 06:08:01;;;;;;;138.63;38.90;;;;;;;;;;5009575;28;20638;-68
2022/12/21 06:10:27;;;;;;;132.75;39.13;;;;;;;;;;5011457;28;20316;-68
2022/12/21 06:12:52;;;;;;;133.75;39.28;;;;;;;;;;5011435;28;20233;-69
2022/12/21 06:15:17;;;;;;;139.05;38.50;;;;;;;;;;5011908;28;20697;-68
2022/12/21 06:17:43;;;;;;;126.30;38.83;;;;;;;;;;5004811;28;20239;-69
2022/12/21 06:20:08;;;;;;;137.60;40.97;;;;;;;;;;5012944;28;20210;-69
2022/12/21 06:22:34;;;;;;;141.70;40.33;;;;;;;;;;5009001;28;20306;-68
2022/12/21 06:25:01;;;;;;;133.25;39.47;;;;;;;;;;5000161;28;20661;-68
2022/12/21 06:27:26;;;;;;;161.85;40.97;;;;;;;;;;5009283;28;20214;-69
2022/12/21 06:29:51;;;;;;;131.38;40.40;;;;;;;;;;4999281;28;20213;-68
2022/12/21 06:32:17;;;;;;;156.75;43.13;;;;;;;;;;5001894;28;20642;-68
2022/12/21 06:34:42;;;;;;;143.35;41.45;;;;;;;;;;5010558;28;20214;-68
2022/12/21 06:37:09;;;;;;;136.73;41.70;;;;;;;;;;5005152;28;20199;-68
2022/12/21 06:39:35;;;;;;;145.40;42.42;;;;;;;;;;4999939;28;20655;-68
2022/12/21 06:42:01;;;;;;;138.52;42.50;;;;;;;;;;5016735;28;20175;-68
2022/12/21 06:44:26;;;;;;;162.93;43.75;;;;;;;;;;5008190;28;20203;-68
2022/12/21 06:46:51;;;;;;;160.75;43.65;;;;;;;;;;5000988;28;20182;-68
2022/12/21 06:49:17;;;;;;;139.23;40.75;;;;;;;;;;5014980;28;20233;-69
2022/12/21 06:51:42;;;;;;;135.48;40.00;;;;;;;;;;5017610;28;20500;-68
2022/12/21 06:54:10;;;;;;;153.90;42.90;;;;;;;;;;5002124;28;20195;-68
2022/12/21 06:56:35;;;;;;;122.97;40.13;;;;;;;;;;5011315;28;20194;-68
2022/12/21 06:59:01;;;;;;;137.80;41.50;;;;;;;;;;5008005;28;21031;-68
2022/12/21 07:01:29;;;;;;;136.38;40.65;;;;;;;;;;5005630;28;20519;-68
2022/12/21 07:03:55;;;;;;;133.63;42.00;;;;;;;;;;5001654;28;20309;-69
2022/12/21 07:06:22;;;;;;;148.25;41.72;;;;;;;;;;5010014;28;20194;-67
2022/12/21 07:08:48;;;;;;;136.55;42.42;;;;;;;;;;5006072;28;20385;-67
2022/12/21 07:11:17;;;;;;;137.77;41.67;;;;;;;;;;5002907;28;20679;-68
2022/12/21 07:13:44;;;;;;;141.05;43.10;;;;;;;;;;5011959;28;20584;-67
2022/12/21 07:16:12;;;;;;;126.05;40.17;;;;;;;;;;5027267;28;20205;-67
2022/12/21 07:18:37;;;;;;;131.57;40.13;;;;;;;;;;5015555;28;20197;-68
2022/12/21 07:21:06;;;;;;;133.85;39.67;;;;;;;;;;5025104;28;20621;-67
2022/12/21 07:23:34;;;;;;;116.63;38.10;;;;;;;;;;5023839;28;20293;-68
2022/12/21 07:25:59;;;;;;;106.95;36.05;;;;;;;;;;5041113;28;20192;-67
2022/12/21 07:28:25;;;;;;;111.20;37.00;;;;;;;;;;5017696;28;20191;-67
2022/12/21 07:30:52;;;;;;;111.30;36.45;;;;;;;;;;5010506;28;20209;-67
2022/12/21 07:33:19;;;;;;;110.50;36.20;;;;;;;;;;5019500;28;20612;-68
2022/12/21 07:35:45;;;;;;;101.93;32.90;;;;;;;;;;5026361;28;20187;-67
2022/12/21 07:38:11;;;;;;;104.88;34.35;;;;;;;;;;5036431;28;20399;-68
2022/12/21 07:40:38;;;;;;;101.15;34.10;;;;;;;;;;5017909;28;20198;-67
2022/12/21 07:43:10;;;;;;;105.88;34.88;;;;;;;;;;5006911;28;20220;-67
2022/12/21 07:45:39;;;;;;;98.15;33.58;;;;;;;;;;5008900;28;20187;-68
2022/12/21 07:48:05;;;;;;;99.22;32.83;;;;;;;;;;5007725;28;20225;-68
2022/12/21 07:50:30;;;;;;;100.55;32.03;;;;;;;;;;5006140;28;20214;-68
2022/12/21 07:52:58;;;;;;;88.95;33.17;;;;;;;;;;5018949;28;20214;-69
2022/12/21 07:55:23;;;;;;;82.70;29.13;;;;;;;;;;4663557;28;10000375;-67
2022/12/21 07:57:49;;;;;;;89.07;31.08;;;;;;;;;;5005915;28;20213;-67
2022/12/21 08:00:15;;;;;;;101.20;34.08;;;;;;;;;;5020539;28;20208;-67
2022/12/21 08:02:40;;;;;;;86.07;30.58;;;;;;;;;;5001231;28;20508;-68
2022/12/21 08:05:06;;;;;;;93.93;30.38;;;;;;;;;;5007490;28;20654;-68
2022/12/21 08:07:31;;;;;;;86.13;31.05;;;;;;;;;;5007783;28;20207;-67
2022/12/21 08:09:56;;;;;;;90.15;29.77;;;;;;;;;;5003099;28;20218;-68
2022/12/21 08:12:22;;;;;;;80.55;28.73;;;;;;;;;;5008101;28;20504;-68
2022/12/21 08:14:47;;;;;;;76.13;29.23;;;;;;;;;;5000763;28;20221;-68
2022/12/21 08:17:12;;;;;;;79.80;28.17;;;;;;;;;;5000131;28;20254;-68
2022/12/21 08:19:38;;;;;;;75.82;28.75;;;;;;;;;;5001019;28;20206;-68
2022/12/21 08:22:03;;;;;;;86.07;28.80;;;;;;;;;;5011142;28;20368;-67
2022/12/21 08:24:28;;;;;;;84.53;27.98;;;;;;;;;;4999936;28;20214;-67
2022/12/21 08:26:54;;;;;;;86.55;29.23;;;;;;;;;;5019168;28;20265;-67
2022/12/21 08:29:20;;;;;;;77.85;27.27;;;;;;;;;;5004793;28;20356;-68
2022/12/21 08:31:46;;;;;;;76.47;27.23;;;;;;;;;;5010797;28;20601;-68
2022/12/21 08:34:11;;;;;;;75.55;28.05;;;;;;;;;;5005353;28;20191;-67
2022/12/21 08:36:38;;;;;;;74.53;28.55;;;;;;;;;;5020997;28;20182;-68
2022/12/21 08:39:03;;;;;;;79.50;26.67;;;;;;;;;;5024525;28;20186;-67
2022/12/21 08:41:29;;;;;;;78.05;27.15;;;;;;;;;;5025381;28;20198;-67
2022/12/21 08:43:54;;;;;;;66.53;25.73;;;;;;;;;;5016920;28;20686;-67
2022/12/21 08:46:20;;;;;;;70.05;25.85;;;;;;;;;;5007627;28;20225;-67
2022/12/21 08:48:46;;;;;;;71.28;26.10;;;;;;;;;;5008667;28;20195;-67
2022/12/21 08:51:11;;;;;;;69.25;26.98;;;;;;;;;;5005341;28;20481;-67
2022/12/21 08:53:38;;;;;;;73.03;25.90;;;;;;;;;;4998759;28;20654;-67
2022/12/21 08:56:04;;;;;;;72.30;26.38;;;;;;;;;;5007617;28;20210;-67
2022/12/21 08:58:29;;;;;;;69.88;24.75;;;;;;;;;;5006198;28;20201;-68
2022/12/21 09:00:55;;;;;;;72.28;25.25;;;;;;;;;;5000708;28;20214;-67
2022/12/21 09:03:21;;;;;;;71.18;25.48;;;;;;;;;;5018373;28;20206;-67
2022/12/21 09:05:47;;;;;;;70.90;24.95;;;;;;;;;;4994893;28;20210;-67
2022/12/21 09:08:13;;;;;;;62.85;25.33;;;;;;;;;;5007242;28;20292;-67
2022/12/21 09:10:38;;;;;;;63.22;25.02;;;;;;;;;;4995067;28;20827;-68
2022/12/21 09:13:04;;;;;;;67.05;24.52;;;;;;;;;;4997621;28;20345;-67
2022/12/21 09:15:30;;;;;;;63.70;25.27;;;;;;;;;;4991506;28;20187;-67
2022/12/21 09:17:56;;;;;;;71.50;25.50;;;;;;;;;;4999688;28;20967;-67
2022/12/21 09:20:21;;;;;;;70.10;25.63;;;;;;;;;;4986347;28;20245;-67
2022/12/21 09:22:47;;;;;;;70.22;26.83;;;;;;;;;;4995241;28;20329;-67
2022/12/21 09:25:12;;;;;;;74.43;28.02;;;;;;;;;;4999427;28;20200;-67
2022/12/21 09:27:38;;;;;;;74.53;28.33;;;;;;;;;;5000565;28;20507;-67
2022/12/21 09:30:04;;;;;;;72.95;28.30;;;;;;;;;;4999497;28;20203;-66
2022/12/21 09:32:29;;;;;;;76.22;29.90;;;;;;;;;;5005578;28;20285;-67
2022/12/21 09:34:55;;;;;;;72.20;28.15;;;;;;;;;;4998307;28;20259;-66
2022/12/21 09:37:20;;;;;;;67.63;26.63;;;;;;;;;;4999617;28;20191;-68
2022/12/21 09:39:45;;;;;;;66.85;27.08;;;;;;;;;;5004683;28;20196;-67
2022/12/21 09:42:13;;;;;;;69.85;28.90;;;;;;;;;;5003508;28;20274;-68
2022/12/21 09:44:58;;;;;;;67.88;27.23;;;;;;;;;;5002878;28;20610;-68
2022/12/21 09:47:44;;;;;;;69.55;28.25;;;;;;;;;;5014713;28;20343;-69
2022/12/21 09:50:42;;;;;;;73.93;30.42;;;;;;;;;;4999147;28;20226;-67
2022/12/21 09:53:20;;;;;;;72.47;29.63;;;;;;;;;;5008866;28;20289;-66
2022/12/21 09:55:52;;;;;;;78.38;29.20;;;;;;;;;;5021382;28;20597;-68
2022/12/21 09:58:42;;;;;;;81.28;31.02;;;;;;;;;;5020479;28;20218;-67
2022/12/21 10:01:26;;;;;;;90.35;34.08;;;;;;;;;;5002848;28;20631;-68
2022/12/21 10:04:25;;;;;;;88.78;32.70;;;;;;;;;;4997495;28;20203;-68
2022/12/21 10:07:15;;;;;;;83.05;34.28;;;;;;;;;;5017854;28;20590;-68
2022/12/21 10:09:59;;;;;;;79.53;32.78;;;;;;;;;;5013101;28;20198;-68
2022/12/21 10:12:37;;;;;;;86.65;34.22;;;;;;;;;;5030922;28;20190;-67
2022/12/21 10:15:13;;;;;;;94.47;36.67;;;;;;;;;;5000765;28;20218;-67
2022/12/21 10:18:14;;;;;;;99.30;37.83;;;;;;;;;;5004233;28;20216;-67
2022/12/21 10:20:49;;;;;;;96.00;35.58;;;;;;;;;;5012493;28;20203;-67
2022/12/21 10:23:20;;;;;;;99.75;37.05;;;;;;;;;;5024301;28;20230;-66
2022/12/21 10:25:49;;;;;;;100.50;39.35;;;;;;;;;;5015810;28;20262;-67
2022/12/21 10:28:35;;;;;;;93.75;38.08;;;;;;;;;;5011641;28;20190;-67
2022/12/21 10:31:04;;;;;;;100.88;37.90;;;;;;;;;;5022387;28;20259;-68
2022/12/21 10:33:33;;;;;;;90.28;37.20;;;;;;;;;;5032376;28;20190;-67
2022/12/21 10:36:03;;;;;;;86.93;37.63;;;;;;;;;;5026707;28;20208;-67
2022/12/21 10:38:32;;;;;;;84.28;36.85;;;;;;;;;;5026122;28;20210;-67
2022/12/21 10:40:59;;;;;;;82.45;37.42;;;;;;;;;;5025350;28;20548;-67
2022/12/21 10:43:25;;;;;;;86.13;35.67;;;;;;;;;;5025599;28;20207;-67
2022/12/21 10:45:51;;;;;;;76.07;36.50;;;;;;;;;;5019689;28;20534;-67
2022/12/21 10:48:18;;;;;;;77.88;36.20;;;;;;;;;;5026068;28;20198;-67
2022/12/21 10:50:50;;;;;;;72.90;35.65;;;;;;;;;;5008376;28;20190;-67
2022/12/21 10:53:24;;;;;;;74.95;33.90;;;;;;;;;;5025918;28;20653;-67
2022/12/21 10:55:56;;;;;;;62.85;32.28;;;;;;;;;;5025241;28;20592;-67
2022/12/21 10:58:28;;;;;;;64.63;33.60;;;;;;;;;;5024659;28;20250;-67
2022/12/21 11:01:17;;;;;;;59.50;32.28;;;;;;;;;;5022135;28;20209;-67
2022/12/21 11:03:42;;;;;;;65.60;31.77;;;;;;;;;;5025808;28;20206;-67
2022/12/21 11:06:17;;;;;;;60.10;32.20;;;;;;;;;;5009028;28;20242;-67
2022/12/21 11:08:51;;;;;;;60.60;30.48;;;;;;;;;;5026117;28;20208;-67
2022/12/21 11:11:28;;;;;;;60.25;32.67;;;;;;;;;;5024194;28;20644;-68
2022/12/21 11:13:59;;;;;;;62.83;31.00;;;;;;;;;;5026421;28;20226;-69
2022/12/21 11:16:29;;;;;;;64.03;31.52;;;;;;;;;;5022914;28;20308;-67
2022/12/21 11:18:58;;;;;;;58.35;31.08;;;;;;;;;;5016865;28;20218;-67
2022/12/21 11:21:44;;;;;;;57.15;30.15;;;;;;;;;;5020027;28;20229;-67
2022/12/21 11:24:34;;;;;;;61.40;31.27;;;;;;;;;;5022535;28;20210;-67
2022/12/21 11:27:03;;;;;;;64.75;31.15;;;;;;;;;;5021029;28;20294;-66
2022/12/21 11:29:39;;;;;;;63.42;31.10;;;;;;;;;;5022213;28;20195;-66
2022/12/21 11:32:11;;;;;;;60.08;30.80;;;;;;;;;;5018080;28;20194;-67
2022/12/21 11:34:43;;;;;;;66.93;31.73;;;;;;;;;;5017717;28;20182;-67
2022/12/21 11:37:26;;;;;;;59.17;31.10;;;;;;;;;;5015959;28;20282;-67
2022/12/21 11:39:51;;;;;;;57.22;29.25;;;;;;;;;;5020021;28;20186;-67
2022/12/21 11:42:19;;;;;;;60.13;29.10;;;;;;;;;;5020951;28;20813;-67
2022/12/21 11:44:44;;;;;;;60.55;29.83;;;;;;;;;;5018309;28;20242;-67
2022/12/21 11:47:38;;;;;;;63.72;30.45;;;;;;;;;;5025940;28;20186;-67
2022/12/21 11:50:37;;;;;;;68.22;31.10;;;;;;;;;;5012789;28;20218;-67
2022/12/21 11:53:11;;;;;;;61.17;30.33;;;;;;;;;;4974350;28;20224;-67
2022/12/21 11:56:28;;;;;;;66.75;31.48;;;;;;;;;;5012868;28;20465;-67
2022/12/21 11:59:31;;;;;;;58.00;29.50;;;;;;;;;;5005463;28;20209;-67
2022/12/21 12:02:11;;;;;;;69.03;30.85;;;;;;;;;;5014028;28;20273;-67
2022/12/21 12:05:01;;;;;;;64.78;32.40;;;;;;;;;;5010138;28;20301;-67
2022/12/21 12:07:42;;;;;;;74.80;32.38;;;;;;;;;;5009324;28;20187;-67
2022/12/21 12:10:52;;;;;;;65.00;32.20;;;;;;;;;;5005660;28;20670;-67
2022/12/21 12:13:29;;;;;;;58.55;31.27;;;;;;;;;;4990693;28;20219;-67
2022/12/21 12:16:29;;;;;;;60.08;30.55;;;;;;;;;;4996785;28;20198;-67
2022/12/21 12:19:04;;;;;;;55.40;29.50;;;;;;;;;;5006651;28;20221;-67
2022/12/21 12:22:08;;;;;;;61.08;27.05;;;;;;;;;;5018877;28;20233;-67
2022/12/21 12:24:56;;;;;;;53.95;28.00;;;;;;;;;;5021428;28;20640;-67
2022/12/21 12:27:48;;;;;;;52.70;25.98;;;;;;;;;;5015995;28;20186;-66
2022/12/21 12:30:24;;;;;;;53.10;26.67;;;;;;;;;;5016937;28;20666;-66
2022/12/21 12:33:21;;;;;;;55.03;25.85;;;;;;;;;;5016461;28;20209;-67
2022/12/21 12:35:57;;;;;;;47.60;25.40;;;;;;;;;;5014530;28;20946;-66
2022/12/21 12:38:28;;;;;;;48.45;24.55;;;;;;;;;;5014720;28;20189;-67
2022/12/21 12:41:03;;;;;;;55.05;25.13;;;;;;;;;;5008450;28;20622;-67
2022/12/21 12:43:34;;;;;;;51.58;25.92;;;;;;;;;;5003941;28;20206;-66
2022/12/21 12:46:05;;;;;;;51.05;26.25;;;;;;;;;;5006994;28;20690;-67
2022/12/21 12:48:43;;;;;;;57.25;26.80;;;;;;;;;;5018467;28;20190;-66
2022/12/21 12:51:23;;;;;;;49.42;26.17;;;;;;;;;;5009127;28;20198;-66
2022/12/21 12:54:09;;;;;;;53.28;27.70;;;;;;;;;;5003912;28;20205;-67
2022/12/21 12:56:55;;;;;;;56.05;28.02;;;;;;;;;;5005826;28;20190;-66
2022/12/21 12:59:30;;;;;;;55.13;27.70;;;;;;;;;;5023338;28;20848;-66
2022/12/21 13:02:07;;;;;;;49.75;26.65;;;;;;;;;;5004122;28;20256;-66
2022/12/21 13:05:00;;;;;;;47.70;27.05;;;;;;;;;;5013107;28;20681;-67
2022/12/21 13:07:50;;;;;;;46.05;26.80;;;;;;;;;;5011838;28;20240;-66
2022/12/21 13:10:40;;;;;;;48.67;27.10;;;;;;;;;;5008893;28;20207;-66
2022/12/21 13:13:33;;;;;;;50.63;25.60;;;;;;;;;;5008416;28;20246;-67
2022/12/21 13:16:02;;;;;;;53.80;26.38;;;;;;;;;;5011565;28;20183;-66
2022/12/21 13:18:44;;;;;;;52.75;26.90;;;;;;;;;;5003934;28;20592;-67
2022/12/21 13:21:12;;;;;;;51.97;26.40;;;;;;;;;;5009802;28;20220;-67
2022/12/21 13:23:43;;;;;;;52.45;26.20;;;;;;;;;;5013671;28;20211;-66
2022/12/21 13:26:13;;;;;;;48.97;24.73;;;;;;;;;;5010106;28;20191;-66
2022/12/21 13:29:06;;;;;;;50.65;26.05;;;;;;;;;;5012463;28;20527;-66
2022/12/21 13:31:42;;;;;;;50.53;26.15;;;;;;;;;;5002348;28;20269;-66
2022/12/21 13:34:15;;;;;;;49.55;25.75;;;;;;;;;;5005169;28;20536;-66
2022/12/21 13:36:41;;;;;;;44.60;25.05;;;;;;;;;;5013175;28;20200;-66
2022/12/21 13:39:15;;;;;;;43.63;25.17;;;;;;;;;;5012514;28;20239;-66
2022/12/21 13:41:45;;;;;;;47.55;26.73;;;;;;;;;;5001098;28;20202;-66
2022/12/21 13:44:32;;;;;;;46.90;25.15;;;;;;;;;;5012185;28;20203;-66
2022/12/21 13:46:59;;;;;;;51.97;25.70;;;;;;;;;;5020310;28;20183;-66
2022/12/21 13:50:04;;;;;;;47.90;26.33;;;;;;;;;;5014973;28;20533;-66
2022/12/21 13:53:01;;;;;;;54.33;25.95;;;;;;;;;;5007138;28;20183;-67
2022/12/21 13:55:46;;;;;;;49.92;24.40;;;;;;;;;;5018315;28;20190;-67
2022/12/21 13:58:33;;;;;;;44.38;24.05;;;;;;;;;;5020993;28;20279;-67
2022/12/21 14:01:13;;;;;;;49.90;23.55;;;;;;;;;;5011352;28;20261;-66
2022/12/21 14:03:46;;;;;;;44.63;22.60;;;;;;;;;;5018465;28;20736;-66
2022/12/21 14:06:33;;;;;;;45.03;22.48;;;;;;;;;;5011810;28;20658;-66
2022/12/21 14:09:11;;;;;;;43.90;21.17;;;;;;;;;;5010311;28;20826;-66
2022/12/21 14:11:48;;;;;;;42.05;21.95;;;;;;;;;;4999789;28;20597;-66
2022/12/21 14:14:51;;;;;;;41.80;21.95;;;;;;;;;;4999570;28;20191;-66
2022/12/21 14:17:31;;;;;;;35.88;19.65;;;;;;;;;;5006092;28;20568;-67
2022/12/21 14:19:57;;;;;;;33.28;17.70;;;;;;;;;;5010140;28;20195;-66
2022/12/21 14:22:39;;;;;;;33.33;17.50;;;;;;;;;;5008113;28;20242;-66
2022/12/21 14:25:31;;;;;;;38.88;18.60;;;;;;;;;;4998136;28;20194;-66
2022/12/21 14:28:30;;;;;;;29.23;15.65;;;;;;;;;;4999859;28;20242;-65
2022/12/21 14:31:04;;;;;;;37.20;16.95;;;;;;;;;;5037159;28;20184;-66
2022/12/21 14:33:47;;;;;;;31.75;15.48;;;;;;;;;;5018859;28;20269;-66
2022/12/21 14:36:15;;;;;;;45.30;19.58;;;;;;;;;;5020589;28;20194;-66
2022/12/21 14:38:42;;;;;;;34.15;17.40;;;;;;;;;;5019651;28;20190;-65
2022/12/21 14:41:07;;;;;;;36.47;16.70;;;;;;;;;;5024719;28;20205;-66
2022/12/21 14:44:10;;;;;;;30.80;15.82;;;;;;;;;;5018698;28;20198;-66
2022/12/21 14:46:59;;;;;;;35.42;14.50;;;;;;;;;;5005285;28;20187;-66
2022/12/21 14:49:33;;;;;;;27.45;15.43;;;;;;;;;;5012292;28;20199;-66
2022/12/21 14:52:00;;;;;;;30.42;15.57;;;;;;;;;;5001541;28;20254;-66
2022/12/21 14:54:36;;;;;;;25.10;14.77;;;;;;;;;;5001346;28;20556;-66